Time;durP1;ratioP1;P1;durP2;ratioP2;P2;SDS_P1;SDS_P2;PMS_P1;PMS_P2;Temp;Humidity;BMP_temperature;BMP_pressure;BME280_temperature;BME280_humidity;BME280_pressure;Samples;Min_cycle;Max_cycle;Signal;HPM_P1;HPM_P2
2023/02/20 00:01:34;;;;;;;2.20;0.30;;;5.80;78.40;;;;;;4683567;30;20085;-79
2023/02/20 00:04:01;;;;;;;1.55;0.38;;;5.80;78.70;;;;;;4684441;30;20056;-79
2023/02/20 00:06:28;;;;;;;1.83;0.40;;;5.80;78.00;;;;;;4672010;30;20065;-80
2023/02/20 00:08:55;;;;;;;1.95;0.30;;;5.80;78.20;;;;;;4694893;30;20060;-80
2023/02/20 00:11:23;;;;;;;1.67;0.35;;;5.70;78.40;;;;;;4695112;30;20063;-80
2023/02/20 00:13:50;;;;;;;1.33;0.35;;;5.70;78.50;;;;;;4700884;30;20060;-80
2023/02/20 00:16:17;;;;;;;1.33;0.30;;;5.70;78.00;;;;;;4691383;30;20049;-78
2023/02/20 00:18:44;;;;;;;3.70;0.30;;;5.70;77.70;;;;;;4697177;30;20087;-79
2023/02/20 00:21:11;;;;;;;3.72;0.93;;;5.70;77.40;;;;;;4678425;30;20059;-80
2023/02/20 00:23:39;;;;;;;0.95;0.30;;;5.70;78.00;;;;;;4709194;30;20061;-80
2023/02/20 00:26:10;;;;;;;1.40;0.20;;;5.60;77.90;;;;;;4691361;30;20068;-80
2023/02/20 00:28:42;;;;;;;1.77;0.20;;;5.60;78.10;;;;;;4710278;30;20060;-80
2023/02/20 00:31:13;;;;;;;1.65;0.40;;;5.60;78.60;;;;;;4706431;30;20064;-80
2023/02/20 00:33:40;;;;;;;1.08;0.20;;;5.60;78.60;;;;;;4680208;30;20065;-80
2023/02/20 00:36:17;;;;;;;1.70;0.25;;;5.60;79.30;;;;;;4705607;30;20049;-80
2023/02/20 00:38:44;;;;;;;2.40;0.30;;;5.60;78.80;;;;;;4678384;30;20064;-80
2023/02/20 00:41:16;;;;;;;1.17;0.30;;;5.50;78.90;;;;;;4689082;30;20056;-80
2023/02/20 00:43:44;;;;;;;1.55;0.43;;;5.50;79.20;;;;;;4693395;30;20088;-80
2023/02/20 00:46:12;;;;;;;2.33;0.38;;;5.50;79.40;;;;;;4666647;30;20057;-80
2023/02/20 00:48:41;;;;;;;1.67;0.40;;;5.50;79.50;;;;;;4688423;30;20057;-80
2023/02/20 00:51:27;;;;;;;3.38;0.73;;;5.50;78.80;;;;;;4678786;30;20694;-80
2023/02/20 00:53:54;;;;;;;1.00;0.30;;;5.40;78.70;;;;;;4688371;30;20065;-80
2023/02/20 00:56:21;;;;;;;1.55;0.52;;;5.30;78.70;;;;;;4698023;30;20056;-80
2023/02/20 00:58:48;;;;;;;1.60;0.43;;;5.30;79.10;;;;;;4712591;30;20065;-80
2023/02/20 01:01:15;;;;;;;1.48;0.32;;;5.30;78.90;;;;;;4687473;30;20071;-80
2023/02/20 01:03:43;;;;;;;2.70;0.20;;;5.30;78.60;;;;;;4705452;30;20155;-80
2023/02/20 01:06:10;;;;;;;3.70;0.20;;;5.20;78.80;;;;;;4691003;30;20060;-80
2023/02/20 01:08:38;;;;;;;2.08;0.20;;;5.30;78.40;;;;;;4693086;30;20510;-80
2023/02/20 01:11:05;;;;;;;2.42;0.30;;;5.30;78.60;;;;;;4665271;30;20060;-80
2023/02/20 01:13:32;;;;;;;1.85;0.93;;;5.20;78.40;;;;;;4697743;30;20468;-80
2023/02/20 01:15:59;;;;;;;2.05;0.40;;;4.70;78.20;;;;;;4675618;30;20673;-80
2023/02/20 01:18:27;;;;;;;1.30;0.40;;;5.20;78.40;;;;;;4675443;30;20122;-80
2023/02/20 01:20:54;;;;;;;2.05;0.35;;;5.20;78.30;;;;;;4693142;30;20190;-80
2023/02/20 01:23:21;;;;;;;1.67;0.30;;;5.20;78.20;;;;;;4692698;30;20075;-79
2023/02/20 01:25:48;;;;;;;2.85;0.25;;;5.10;78.00;;;;;;4692419;30;20061;-80
2023/02/20 01:28:16;;;;;;;3.30;0.50;;;5.10;78.50;;;;;;4730474;30;20052;-80
2023/02/20 01:30:43;;;;;;;2.50;0.20;;;5.20;78.90;;;;;;4688095;30;20060;-80
2023/02/20 01:33:10;;;;;;;0.93;0.30;;;5.20;79.40;;;;;;4687702;30;20088;-79
2023/02/20 01:35:37;;;;;;;2.45;0.85;;;5.20;79.80;;;;;;4709956;30;20513;-79
2023/02/20 01:38:05;;;;;;;1.30;0.30;;;5.20;80.80;;;;;;4692197;30;20076;-79
2023/02/20 01:40:33;;;;;;;1.13;0.30;;;5.20;81.70;;;;;;4684313;30;20288;-79
2023/02/20 01:43:03;;;;;;;1.25;0.30;;;5.20;82.30;;;;;;4673327;30;20841;-79
2023/02/20 01:45:37;;;;;;;3.75;0.50;;;5.10;82.40;;;;;;4685045;30;20056;-79
2023/02/20 01:48:04;;;;;;;1.33;0.60;;;5.10;83.60;;;;;;4686932;30;20130;-80
2023/02/20 01:50:37;;;;;;;3.13;0.90;;;5.10;84.80;;;;;;4681180;30;20052;-80
2023/02/20 01:53:10;;;;;;;3.45;0.77;;;5.10;85.00;;;;;;4695880;30;20057;-80
2023/02/20 01:55:43;;;;;;;4.10;0.98;;;5.00;85.20;;;;;;4690648;30;20052;-80
2023/02/20 01:58:22;;;;;;;3.10;0.95;;;5.10;86.10;;;;;;4691648;30;20064;-80
2023/02/20 02:00:49;;;;;;;3.08;0.80;;;5.00;86.70;;;;;;4695398;30;20585;-80
2023/02/20 02:03:20;;;;;;;1.50;0.60;;;5.00;86.90;;;;;;4677652;30;20509;-80
2023/02/20 02:05:52;;;;;;;4.32;0.55;;;4.90;87.10;;;;;;4674255;30;20053;-80
2023/02/20 02:08:22;;;;;;;2.17;0.50;;;4.90;88.30;;;;;;4710104;30;20060;-80
2023/02/20 02:11:01;;;;;;;3.08;0.50;;;4.80;87.90;;;;;;4691505;30;20068;-80
2023/02/20 02:13:32;;;;;;;5.45;1.02;;;4.90;88.80;;;;;;4704051;30;20053;-79
2023/02/20 02:16:24;;;;;;;2.15;0.47;;;4.80;88.90;;;;;;4691089;30;20978;-80
2023/02/20 02:19:00;;;;;;;3.28;0.90;;;4.70;89.50;;;;;;4681572;30;20121;-79
2023/02/20 02:21:48;;;;;;;4.20;0.93;;;4.70;90.10;;;;;;4672051;30;20053;-80
2023/02/20 02:24:54;;;;;;;2.80;0.63;;;4.70;90.50;;;;;;4683194;30;20076;-80
2023/02/20 02:27:52;;;;;;;4.20;0.93;;;4.60;90.70;;;;;;4672356;30;20061;-80
2023/02/20 02:30:44;;;;;;;5.75;0.90;;;4.60;91.20;;;;;;4703911;30;20190;-80
2023/02/20 02:33:31;;;;;;;2.70;0.90;;;4.40;91.50;;;;;;4707461;30;20056;-79
2023/02/20 02:36:17;;;;;;;3.13;1.00;;;4.40;92.00;;;;;;4672442;30;20713;-79
2023/02/20 02:38:50;;;;;;;5.20;1.20;;;4.30;92.20;;;;;;4684794;30;20807;-79
2023/02/20 02:41:45;;;;;;;3.35;1.00;;;4.40;92.50;;;;;;4702817;30;21069;-79
2023/02/20 02:44:22;;;;;;;3.47;1.10;;;4.40;92.80;;;;;;4671042;30;20884;-80
2023/02/20 02:46:57;;;;;;;5.43;1.35;;;4.40;92.90;;;;;;4696493;30;20065;-80
2023/02/20 02:49:28;;;;;;;4.18;1.13;;;4.20;93.00;;;;;;4709839;30;20799;-80
2023/02/20 02:51:56;;;;;;;2.85;1.30;;;4.30;93.30;;;;;;4687570;30;20060;-79
2023/02/20 02:54:26;;;;;;;3.58;1.23;;;4.20;93.50;;;;;;4674388;30;20049;-80
2023/02/20 02:57:19;;;;;;;4.45;1.38;;;4.30;93.70;;;;;;4683920;30;20212;-80
2023/02/20 02:59:50;;;;;;;6.03;1.45;;;4.20;93.80;;;;;;4670126;30;20087;-79
2023/02/20 03:02:18;;;;;;;3.58;1.52;;;4.20;94.10;;;;;;4683647;30;20084;-78
2023/02/20 03:04:49;;;;;;;5.10;1.50;;;4.20;94.30;;;;;;4685931;30;20059;-79
2023/02/20 03:07:21;;;;;;;4.43;2.13;;;4.00;94.20;;;;;;4699197;30;20502;-79
2023/02/20 03:10:06;;;;;;;5.45;1.50;;;4.00;94.70;;;;;;4675740;30;20573;-79
2023/02/20 03:12:39;;;;;;;6.40;1.05;;;4.00;94.70;;;;;;4686279;30;20064;-79
2023/02/20 03:15:34;;;;;;;3.58;1.60;;;3.90;94.80;;;;;;4688658;30;20056;-79
2023/02/20 03:18:24;;;;;;;3.33;1.38;;;4.00;95.20;;;;;;4683173;30;20074;-80
2023/02/20 03:20:55;;;;;;;2.95;1.02;;;3.90;95.20;;;;;;4680546;30;20060;-79
2023/02/20 03:23:32;;;;;;;4.88;1.60;;;3.80;95.60;;;;;;4697460;30;20071;-79
2023/02/20 03:26:04;;;;;;;3.17;1.27;;;3.90;95.70;;;;;;4699177;30;20078;-79
2023/02/20 03:28:40;;;;;;;2.70;1.13;;;3.80;95.60;;;;;;4656143;30;20048;-79
2023/02/20 03:31:15;;;;;;;4.10;1.38;;;3.80;95.90;;;;;;4687438;30;20048;-79
2023/02/20 03:45:30;;;;;;;6.18;1.35;;;3.90;96.60;;;;;;4704194;30;20060;-79
2023/02/20 03:48:02;;;;;;;5.93;1.80;;;3.90;96.70;;;;;;4672115;30;20125;-80
2023/02/20 03:53:20;;;;;;;3.08;1.40;;;3.90;96.80;;;;;;4684250;30;20434;-80
2023/02/20 03:55:49;;;;;;;36.30;20.27;;;3.90;97.00;;;;;;4672251;30;20060;-79
2023/02/20 03:58:22;;;;;;;23.33;13.48;;;3.90;97.10;;;;;;4681439;30;20454;-80
2023/02/20 04:00:54;;;;;;;35.80;20.67;;;3.90;97.20;;;;;;4679836;30;20057;-79
2023/02/20 04:03:26;;;;;;;22.33;11.38;;;3.80;97.10;;;;;;4684151;30;20513;-79
2023/02/20 04:05:57;;;;;;;30.63;12.90;;;3.80;97.20;;;;;;4653442;30;20061;-79
2023/02/20 04:08:36;;;;;;;124.50;41.00;;;3.70;97.50;;;;;;4676715;30;20060;-80
2023/02/20 04:11:04;;;;;;;44.63;17.58;;;3.70;97.80;;;;;;4683349;30;20061;-79
2023/02/20 04:13:32;;;;;;;46.28;22.27;;;3.80;98.00;;;;;;4683102;30;20063;-79
2023/02/20 04:16:01;;;;;;;16.58;8.40;;;3.80;97.90;;;;;;4664105;30;20194;-79
2023/02/20 04:18:29;;;;;;;44.95;16.70;;;3.80;97.90;;;;;;4683079;30;20094;-79
2023/02/20 04:21:00;;;;;;;40.17;16.67;;;3.60;97.90;;;;;;4667585;30;20049;-80
2023/02/20 04:23:39;;;;;;;10.35;4.97;;;3.70;98.20;;;;;;4680188;30;20421;-79
2023/02/20 04:26:11;;;;;;;8.10;3.35;;;3.50;98.20;;;;;;4679023;30;20061;-79
2023/02/20 04:28:41;;;;;;;16.00;8.15;;;3.50;98.50;;;;;;4682445;30;20755;-79
2023/02/20 04:31:12;;;;;;;44.08;20.85;;;3.60;98.60;;;;;;4680128;30;20049;-78
2023/02/20 04:33:39;;;;;;;5.43;2.95;;;3.60;98.50;;;;;;4683888;30;20060;-79
2023/02/20 04:36:12;;;;;;;;;;;3.50;98.20;;;;;;4662860;30;20060;-79
2023/02/20 04:38:39;;;;;;;20.50;10.38;;;3.60;98.70;;;;;;4682485;30;20396;-79
2023/02/20 04:41:11;;;;;;;29.65;12.82;;;3.60;98.50;;;;;;4683508;30;20514;-79
2023/02/20 04:43:39;;;;;;;21.13;9.27;;;3.60;98.40;;;;;;4687675;30;20155;-79
2023/02/20 04:46:06;;;;;;;17.88;7.25;;;3.70;98.50;;;;;;4672772;30;22474;-78
2023/02/20 04:48:34;;;;;;;19.33;8.32;;;3.70;98.50;;;;;;4669470;30;21957;-78
2023/02/20 04:51:02;;;;;;;24.90;8.02;;;3.70;98.60;;;;;;4692233;30;20274;-79
2023/02/20 04:53:31;;;;;;;8.52;3.88;;;3.70;98.50;;;;;;4669954;30;20814;-80
2023/02/20 04:55:58;;;;;;;15.85;6.55;;;3.70;98.80;;;;;;4690107;30;20726;-79
2023/02/20 04:58:26;;;;;;;9.20;2.47;;;3.70;98.30;;;;;;4686762;30;20052;-79
2023/02/20 05:00:59;;;;;;;9.23;2.10;;;3.60;98.40;;;;;;4690268;30;20103;-79
2023/02/20 05:03:26;;;;;;;6.38;1.90;;;3.60;98.50;;;;;;4706207;30;20057;-79
2023/02/20 05:05:54;;;;;;;11.30;2.22;;;3.60;98.50;;;;;;4703966;30;20099;-79
2023/02/20 05:08:21;;;;;;;5.45;1.92;;;3.60;98.50;;;;;;4687021;30;21350;-80
2023/02/20 05:10:48;;;;;;;10.05;2.80;;;3.50;98.80;;;;;;4691947;30;20316;-80
2023/02/20 05:13:15;;;;;;;6.68;2.00;;;3.40;98.80;;;;;;4704783;30;20845;-78
2023/02/20 05:15:42;;;;;;;27.63;9.20;;;3.30;99.00;;;;;;4703743;30;20063;-79
2023/02/20 05:18:09;;;;;;;6.38;2.45;;;3.40;99.50;;;;;;4685999;30;20049;-80
2023/02/20 05:23:22;;;;;;;5.63;1.70;;;3.30;99.10;;;;;;4686972;30;20212;-79
2023/02/20 05:25:49;;;;;;;7.10;2.13;;;3.30;99.40;;;;;;4689634;30;20112;-80
2023/02/20 05:28:16;;;;;;;6.78;1.83;;;3.40;99.50;;;;;;4685406;30;20060;-79
2023/02/20 05:30:43;;;;;;;4.75;1.92;;;3.50;99.40;;;;;;4684584;30;20067;-79
2023/02/20 05:33:10;;;;;;;6.65;2.38;;;3.40;98.90;;;;;;4689361;30;21216;-80
2023/02/20 05:35:39;;;;;;;5.07;1.52;;;3.50;99.10;;;;;;4700369;30;20047;-79
2023/02/20 05:38:06;;;;;;;5.45;1.55;;;3.50;98.80;;;;;;4684311;30;20049;-79
2023/02/20 05:40:33;;;;;;;7.43;2.63;;;3.50;98.80;;;;;;4695899;30;20053;-79
2023/02/20 05:43:00;;;;;;;5.38;2.20;;;3.60;98.50;;;;;;4706725;30;20060;-79
2023/02/20 05:45:28;;;;;;;6.25;1.70;;;3.60;98.70;;;;;;4690752;30;20053;-80
2023/02/20 05:47:55;;;;;;;5.38;1.75;;;3.60;98.40;;;;;;4692581;30;20056;-80
2023/02/20 05:50:22;;;;;;;3.35;1.75;;;3.60;98.20;;;;;;4701983;30;20122;-79
2023/02/20 05:52:49;;;;;;;5.00;2.20;;;3.60;98.30;;;;;;4691432;30;20513;-79
2023/02/20 05:55:16;;;;;;;4.97;2.00;;;3.60;98.20;;;;;;4705280;30;20974;-79
2023/02/20 05:57:43;;;;;;;4.68;1.75;;;3.60;98.00;;;;;;4708678;30;20201;-79
2023/02/20 06:00:11;;;;;;;5.30;1.80;;;3.60;97.90;;;;;;4694456;30;20063;-80
2023/02/20 06:02:38;;;;;;;5.93;2.30;;;3.60;97.90;;;;;;4664600;30;20794;-80
2023/02/20 06:05:06;;;;;;;6.10;1.90;;;3.60;97.80;;;;;;4702531;30;20067;-79
2023/02/20 06:07:34;;;;;;;3.72;1.58;;;3.70;97.90;;;;;;4690258;30;20088;-79
2023/02/20 06:10:03;;;;;;;6.68;1.55;;;3.70;97.90;;;;;;4683184;30;20065;-79
2023/02/20 06:12:30;;;;;;;3.35;1.60;;;3.70;97.80;;;;;;4717552;30;20060;-79
2023/02/20 06:14:57;;;;;;;5.30;1.55;;;3.70;97.70;;;;;;4661533;30;20057;-79
2023/02/20 06:17:25;;;;;;;2.53;0.80;;;3.80;97.50;;;;;;4702869;30;20059;-79
2023/02/20 06:19:52;;;;;;;3.47;1.35;;;3.80;97.20;;;;;;4673429;30;20246;-78
2023/02/20 06:22:19;;;;;;;5.43;1.60;;;3.80;96.90;;;;;;4683171;30;20057;-79
2023/02/20 06:24:47;;;;;;;9.35;1.73;;;3.90;97.10;;;;;;4712303;30;20592;-82
2023/02/20 06:27:15;;;;;;;4.55;1.70;;;3.90;97.00;;;;;;4699302;30;20057;-79
2023/02/20 06:29:45;;;;;;;5.82;1.98;;;3.90;96.80;;;;;;4669820;30;20061;-79
2023/02/20 06:32:12;;;;;;;3.65;1.65;;;4.00;96.60;;;;;;4698948;30;20071;-79
2023/02/20 06:34:39;;;;;;;5.20;1.42;;;4.00;96.30;;;;;;4684901;30;20052;-78
2023/02/20 06:37:06;;;;;;;5.68;1.55;;;4.00;96.40;;;;;;4684061;30;20059;-79
2023/02/20 06:39:34;;;;;;;12.77;2.70;;;4.00;96.50;;;;;;4705175;30;20060;-79
2023/02/20 06:42:01;;;;;;;13.10;2.85;;;4.00;96.50;;;;;;4673730;30;20072;-78
2023/02/20 06:44:28;;;;;;;5.88;1.90;;;4.00;96.20;;;;;;4667270;30;22526;-78
2023/02/20 06:46:55;;;;;;;5.35;1.85;;;4.10;96.60;;;;;;4682578;30;20948;-79
2023/02/20 06:49:23;;;;;;;7.93;2.90;;;4.10;96.40;;;;;;4698928;30;20064;-78
2023/02/20 06:51:53;;;;;;;7.15;1.10;;;4.10;96.50;;;;;;4687501;30;20100;-80
2023/02/20 06:54:21;;;;;;;5.38;1.80;;;4.20;96.40;;;;;;4715592;30;20060;-78
2023/02/20 06:56:48;;;;;;;6.30;2.70;;;4.10;96.40;;;;;;4678742;30;21049;-79
2023/02/20 06:59:15;;;;;;;15.05;8.98;;;4.10;96.20;;;;;;4706546;30;20056;-79
2023/02/20 07:01:42;;;;;;;9.57;5.43;;;4.20;96.60;;;;;;4691190;30;20063;-79
2023/02/20 07:04:22;;;;;;;11.15;5.25;;;4.20;96.40;;;;;;4687789;30;20145;-79
2023/02/20 07:06:51;;;;;;;13.35;7.00;;;4.20;96.10;;;;;;4693501;30;20057;-79
2023/02/20 07:09:19;;;;;;;7.85;3.85;;;4.20;96.40;;;;;;4678106;30;20053;-79
2023/02/20 07:11:47;;;;;;;12.80;7.22;;;4.30;96.70;;;;;;4692730;30;20049;-80
2023/02/20 07:14:14;;;;;;;27.33;12.80;;;4.30;96.90;;;;;;4691291;30;20091;-80
2023/02/20 07:16:42;;;;;;;24.38;12.07;;;4.40;97.10;;;;;;4691413;30;20097;-79
2023/02/20 07:19:09;;;;;;;15.05;6.03;;;4.40;97.10;;;;;;4692250;30;20068;-79
2023/02/20 07:21:36;;;;;;;25.13;12.55;;;4.30;97.40;;;;;;4695679;30;20045;-79
2023/02/20 07:24:04;;;;;;;7.53;2.92;;;4.30;97.50;;;;;;4693926;30;20061;-80
2023/02/20 07:26:31;;;;;;;12.43;4.57;;;4.40;98.10;;;;;;4705974;30;20070;-79
2023/02/20 07:29:01;;;;;;;7.07;2.50;;;4.40;98.40;;;;;;4694799;30;20753;-80
2023/02/20 07:31:29;;;;;;;8.18;4.05;;;4.50;98.20;;;;;;4692655;30;20061;-81
2023/02/20 07:33:57;;;;;;;6.55;2.25;;;4.50;98.00;;;;;;4684134;30;20057;-79
2023/02/20 07:36:24;;;;;;;8.68;3.25;;;4.50;98.00;;;;;;4696643;30;20049;-80
2023/02/20 07:38:59;;;;;;;7.68;3.50;;;4.60;97.70;;;;;;4706460;30;20060;-80
2023/02/20 07:41:30;;;;;;;8.82;4.85;;;4.60;97.90;;;;;;4721433;30;20049;-82
2023/02/20 07:43:57;;;;;;;14.60;7.65;;;4.60;98.00;;;;;;4673556;30;20679;-79
2023/02/20 07:46:25;;;;;;;11.30;3.40;;;4.70;98.00;;;;;;4689332;30;20509;-79
2023/02/20 07:48:52;;;;;;;13.98;6.90;;;4.70;97.80;;;;;;4689425;30;20065;-80
2023/02/20 07:51:19;;;;;;;9.65;3.58;;;4.80;98.30;;;;;;4720057;30;20599;-80
2023/02/20 07:53:51;;;;;;;7.45;2.47;;;4.90;98.10;;;;;;4692110;30;20064;-80
2023/02/20 07:56:19;;;;;;;7.35;3.03;;;4.90;98.00;;;;;;4672737;30;20060;-80
2023/02/20 07:58:47;;;;;;;8.10;3.28;;;5.00;97.80;;;;;;4696304;30;20060;-80
2023/02/20 08:01:15;;;;;;;8.95;3.40;;;5.00;97.50;;;;;;4672212;30;20052;-80
2023/02/20 08:03:42;;;;;;;35.33;12.02;;;5.00;97.40;;;;;;4692836;30;20544;-79
2023/02/20 08:06:10;;;;;;;31.92;13.10;;;5.10;98.00;;;;;;4686649;30;20560;-80
2023/02/20 08:08:38;;;;;;;7.60;2.70;;;5.10;97.20;;;;;;4685353;30;20049;-79
2023/02/20 08:11:06;;;;;;;9.18;3.65;;;5.20;95.60;;;;;;4691705;30;20513;-79
2023/02/20 08:13:37;;;;;;;5.78;2.03;;;5.30;95.90;;;;;;4698089;30;20625;-79
2023/02/20 08:16:04;;;;;;;5.28;1.73;;;5.40;95.10;;;;;;4697844;30;20060;-79
2023/02/20 08:18:31;;;;;;;3.70;1.30;;;5.50;95.20;;;;;;4705450;30;20146;-79
2023/02/20 08:20:58;;;;;;;5.70;1.95;;;5.50;94.20;;;;;;4693689;30;20060;-80
2023/02/20 08:23:26;;;;;;;5.28;1.70;;;5.50;94.30;;;;;;4692517;30;20071;-79
2023/02/20 08:25:53;;;;;;;7.35;2.30;;;5.60;94.40;;;;;;4693661;30;20069;-80
2023/02/20 08:28:21;;;;;;;8.25;2.83;;;5.70;94.40;;;;;;4675327;30;20065;-79
2023/02/20 08:30:48;;;;;;;6.85;2.35;;;5.60;94.30;;;;;;4696627;30;20032;-80
2023/02/20 08:33:15;;;;;;;5.88;2.17;;;5.70;94.60;;;;;;4704286;30;20610;-80
2023/02/20 08:35:43;;;;;;;7.95;2.95;;;5.60;94.70;;;;;;4695748;30;20053;-80
2023/02/20 08:38:31;;;;;;;8.48;2.72;;;5.70;95.60;;;;;;4709927;30;20059;-80
2023/02/20 08:40:58;;;;;;;7.18;1.92;;;5.60;96.20;;;;;;4693556;30;20161;-81
2023/02/20 08:43:25;;;;;;;6.20;1.80;;;5.80;97.30;;;;;;4691080;30;20057;-80
2023/02/20 08:45:54;;;;;;;7.22;2.20;;;5.90;97.50;;;;;;4706904;30;20065;-80
2023/02/20 08:48:22;;;;;;;6.20;2.50;;;6.00;97.10;;;;;;4688681;30;20068;-80
2023/02/20 08:50:49;;;;;;;4.32;1.70;;;6.10;97.40;;;;;;4675918;30;20081;-80
2023/02/20 08:53:16;;;;;;;8.45;1.73;;;6.40;97.40;;;;;;4687068;30;20253;-79
2023/02/20 08:55:44;;;;;;;3.35;1.30;;;6.50;97.30;;;;;;4683829;30;20068;-79
2023/02/20 08:58:11;;;;;;;7.82;2.75;;;6.40;97.00;;;;;;4684263;30;20069;-79
2023/02/20 09:00:38;;;;;;;13.27;8.82;;;6.40;98.20;;;;;;4671268;30;20056;-79
2023/02/20 09:03:07;;;;;;;7.95;4.68;;;6.30;97.70;;;;;;4685889;30;20309;-80
2023/02/20 09:05:34;;;;;;;5.80;4.32;;;6.30;98.20;;;;;;4693140;30;22829;-79
2023/02/20 09:08:05;;;;;;;7.63;4.32;;;6.30;99.00;;;;;;4685536;30;20056;-79
2023/02/20 09:10:32;;;;;;;7.80;2.80;;;6.40;99.70;;;;;;4685821;30;20117;-79
2023/02/20 09:12:59;;;;;;;3.05;1.30;;;6.40;99.90;;;;;;4689501;30;20205;-79
2023/02/20 09:15:27;;;;;;;7.18;5.20;;;6.50;99.90;;;;;;4694779;30;20065;-79
2023/02/20 09:17:55;;;;;;;3.42;1.60;;;6.50;99.90;;;;;;4685343;30;20069;-80
2023/02/20 09:20:22;;;;;;;19.40;11.32;;;6.40;99.90;;;;;;4700736;30;22953;-80
2023/02/20 09:22:50;;;;;;;16.73;7.82;;;6.50;99.90;;;;;;4672455;30;20049;-79
2023/02/20 09:25:18;;;;;;;10.77;5.57;;;6.60;99.90;;;;;;4676415;30;20068;-79
2023/02/20 09:27:45;;;;;;;16.33;7.93;;;6.60;99.90;;;;;;4721676;30;20056;-79
2023/02/20 09:30:19;;;;;;;14.52;6.45;;;6.60;99.90;;;;;;4694800;30;20118;-80
2023/02/20 09:32:46;;;;;;;12.27;5.75;;;6.90;99.90;;;;;;4688442;30;20149;-79
2023/02/20 09:35:20;;;;;;;8.98;4.47;;;7.00;99.90;;;;;;4691680;30;20520;-78
2023/02/20 09:37:48;;;;;;;5.90;2.72;;;7.10;99.90;;;;;;4675292;30;20063;-80
2023/02/20 09:40:16;;;;;;;3.60;1.95;;;7.20;99.90;;;;;;4691473;30;20060;-79
2023/02/20 09:43:25;;;;;;;4.32;2.67;;;7.30;99.70;;;;;;4703310;30;20425;-79
2023/02/20 09:45:58;;;;;;;5.65;2.05;;;7.40;99.60;;;;;;4692456;30;20056;-79
2023/02/20 09:48:38;;;;;;;4.28;1.55;;;7.50;99.10;;;;;;4689507;30;20088;-80
2023/02/20 09:51:13;;;;;;;5.70;2.75;;;7.50;99.00;;;;;;4692233;30;20602;-79
2023/02/20 09:54:05;;;;;;;6.28;2.17;;;7.50;98.20;;;;;;4678601;30;20123;-80
2023/02/20 09:56:41;;;;;;;5.00;2.47;;;7.80;98.10;;;;;;4692784;30;20063;-79
2023/02/20 09:59:17;;;;;;;3.60;1.70;;;7.90;97.40;;;;;;4691166;30;20291;-79
2023/02/20 10:02:24;;;;;;;18.20;6.55;;;7.80;96.10;;;;;;4707171;30;20801;-80
2023/02/20 10:04:55;;;;;;;9.45;4.57;;;7.70;96.10;;;;;;4682542;30;20088;-80
2023/02/20 10:07:36;;;;;;;10.98;3.78;;;7.80;96.10;;;;;;4709699;30;20056;-79
2023/02/20 10:10:33;;;;;;;4.03;1.25;;;7.80;96.40;;;;;;4659332;30;20061;-79
2023/02/20 10:13:29;;;;;;;8.07;3.17;;;7.70;96.50;;;;;;4687421;30;22416;-79
2023/02/20 10:16:38;;;;;;;3.42;1.55;;;7.80;96.80;;;;;;4702586;30;22403;-78
2023/02/20 10:19:17;;;;;;;4.40;1.95;;;8.20;96.80;;;;;;4671760;30;20453;-80
2023/02/20 10:21:54;;;;;;;4.82;1.27;;;8.40;96.60;;;;;;4660231;30;20641;-79
2023/02/20 10:24:52;;;;;;;4.00;1.60;;;8.60;95.90;;;;;;4685180;30;20076;-76
2023/02/20 10:27:49;;;;;;;4.45;0.88;;;8.60;95.50;;;;;;4710244;30;20056;-79
2023/02/20 10:30:39;;;;;;;4.63;1.70;;;8.70;96.20;;;;;;4710361;30;20060;-78
2023/02/20 10:33:37;;;;;;;3.72;1.23;;;8.80;96.10;;;;;;4691284;30;20114;-79
2023/02/20 10:36:25;;;;;;;3.05;1.00;;;8.80;96.40;;;;;;4690248;30;20672;-79
2023/02/20 10:39:12;;;;;;;2.05;1.10;;;8.90;96.30;;;;;;4708139;30;20064;-80
2023/02/20 10:41:59;;;;;;;3.80;1.55;;;8.80;96.00;;;;;;4691025;30;20630;-78
2023/02/20 10:44:46;;;;;;;3.72;1.70;;;8.80;96.10;;;;;;4684398;30;20179;-78
2023/02/20 10:47:33;;;;;;;4.93;1.98;;;8.90;96.60;;;;;;4667718;30;20061;-78
2023/02/20 10:50:10;;;;;;;4.78;1.80;;;8.80;96.40;;;;;;4699270;30;20774;-78
2023/02/20 10:53:00;;;;;;;4.15;1.73;;;8.90;96.90;;;;;;4680234;30;22505;-79
2023/02/20 10:55:47;;;;;;;5.75;2.00;;;9.00;96.80;;;;;;4685640;30;20064;-78
2023/02/20 10:58:30;;;;;;;5.63;2.00;;;9.20;97.10;;;;;;4685928;30;20049;-79
2023/02/20 11:01:12;;;;;;;5.90;2.78;;;9.40;96.20;;;;;;4685722;30;20104;-78
2023/02/20 11:04:02;;;;;;;5.68;1.77;;;9.40;96.10;;;;;;4688259;30;20053;-79
2023/02/20 11:06:37;;;;;;;4.60;1.80;;;9.50;96.10;;;;;;4689668;30;20065;-80
2023/02/20 11:09:04;;;;;;;3.80;1.70;;;9.50;96.20;;;;;;4669532;30;20069;-80
2023/02/20 11:11:41;;;;;;;3.92;1.55;;;9.50;96.40;;;;;;4692429;30;20061;-79
2023/02/20 11:14:11;;;;;;;3.30;2.17;;;9.60;96.20;;;;;;4693079;30;20191;-80
2023/02/20 11:16:48;;;;;;;5.00;1.70;;;9.60;96.10;;;;;;4689799;30;20068;-80
2023/02/20 11:19:26;;;;;;;3.88;2.05;;;9.70;96.50;;;;;;4697249;30;20138;-79
2023/02/20 11:21:54;;;;;;;3.58;2.15;;;9.60;95.60;;;;;;4669276;30;20304;-80
2023/02/20 11:24:39;;;;;;;4.47;2.22;;;9.50;96.10;;;;;;4682651;30;20065;-80
2023/02/20 11:27:06;;;;;;;6.72;2.20;;;9.50;96.40;;;;;;4664332;30;20430;-79
2023/02/20 11:29:47;;;;;;;4.78;2.13;;;9.60;96.30;;;;;;4703831;30;20487;-79
2023/02/20 11:32:37;;;;;;;5.68;2.17;;;9.70;96.50;;;;;;4694442;30;20730;-80
2023/02/20 11:35:16;;;;;;;5.55;2.40;;;9.80;96.50;;;;;;4694058;30;20060;-79
2023/02/20 11:37:49;;;;;;;4.72;2.00;;;10.00;96.80;;;;;;4698208;30;22306;-80
2023/02/20 11:40:29;;;;;;;5.25;2.10;;;10.10;96.40;;;;;;4698440;30;20703;-79
2023/02/20 11:43:19;;;;;;;5.32;2.38;;;10.20;96.00;;;;;;4689527;30;20544;-80
2023/02/20 11:45:47;;;;;;;5.65;2.28;;;10.30;95.60;;;;;;4676941;30;20064;-78
2023/02/20 11:48:16;;;;;;;4.18;2.15;;;10.20;95.20;;;;;;4705821;30;20787;-78
2023/02/20 11:50:47;;;;;;;3.75;2.00;;;10.30;95.10;;;;;;4690931;30;20064;-79
2023/02/20 11:53:37;;;;;;;4.35;2.30;;;10.30;95.60;;;;;;4690215;30;20068;-78
2023/02/20 11:56:17;;;;;;;4.63;2.05;;;10.30;95.20;;;;;;4682520;30;20222;-79
2023/02/20 11:58:45;;;;;;;4.60;1.83;;;10.10;95.20;;;;;;4692450;30;20053;-79
2023/02/20 12:01:31;;;;;;;6.20;1.95;;;10.10;95.40;;;;;;4683143;30;20047;-79
2023/02/20 12:04:00;;;;;;;3.70;2.00;;;10.00;95.80;;;;;;4673667;30;20449;-79
2023/02/20 12:06:33;;;;;;;3.60;2.10;;;10.10;96.50;;;;;;4685009;30;20832;-78
2023/02/20 12:09:03;;;;;;;4.88;2.80;;;10.20;96.30;;;;;;4685640;30;20536;-79
2023/02/20 12:11:30;;;;;;;6.50;3.72;;;10.40;95.90;;;;;;4687426;30;20060;-79
2023/02/20 12:14:02;;;;;;;5.53;2.50;;;10.70;95.70;;;;;;4690701;30;20068;-78
2023/02/20 12:16:48;;;;;;;4.95;2.65;;;10.90;95.20;;;;;;4668232;30;20053;-79
2023/02/20 12:19:17;;;;;;;4.90;2.40;;;11.00;94.50;;;;;;4689529;30;20052;-78
2023/02/20 12:22:02;;;;;;;5.28;2.53;;;11.00;94.10;;;;;;4688867;30;20061;-79
2023/02/20 12:24:49;;;;;;;6.18;2.53;;;11.00;93.90;;;;;;4664847;30;20064;-79
2023/02/20 12:27:16;;;;;;;6.40;2.55;;;11.00;94.00;;;;;;4675808;30;20059;-80
2023/02/20 12:29:51;;;;;;;7.30;2.55;;;11.20;93.90;;;;;;4690025;30;20064;-80
2023/02/20 12:32:41;;;;;;;6.22;2.35;;;11.30;93.60;;;;;;4664469;30;20064;-78
2023/02/20 12:35:31;;;;;;;4.80;1.98;;;11.40;92.80;;;;;;4683785;30;20061;-79
2023/02/20 12:38:25;;;;;;;4.80;1.63;;;11.40;92.80;;;;;;4684085;30;20065;-80
2023/02/20 12:41:30;;;;;;;4.05;1.98;;;11.40;91.10;;;;;;4687058;30;20063;-79
2023/02/20 12:44:13;;;;;;;5.97;1.27;;;11.50;90.10;;;;;;4672360;30;20105;-79
2023/02/20 12:46:49;;;;;;;;;;;11.60;88.60;;;;;;4684309;30;20060;-77
2023/02/20 12:49:38;;;;;;;5.03;1.40;;;11.50;86.30;;;;;;4687704;30;19926;-78
2023/02/20 12:52:43;;;;;;;5.22;2.38;;;11.50;86.50;;;;;;4687635;30;20057;-78
2023/02/20 12:55:10;;;;;;;8.52;2.58;;;11.70;85.30;;;;;;4677057;30;20157;-79
2023/02/20 12:57:49;;;;;;;13.48;4.05;;;11.90;85.50;;;;;;4682949;30;20209;-79
2023/02/20 13:00:28;;;;;;;9.23;3.20;;;12.10;86.00;;;;;;4687697;30;20055;-78
2023/02/20 13:03:14;;;;;;;9.02;3.03;;;12.10;84.80;;;;;;4677744;30;20053;-78
2023/02/20 13:05:44;;;;;;;3.88;2.08;;;12.10;84.20;;;;;;4700952;30;20555;-79
2023/02/20 13:08:24;;;;;;;5.40;2.35;;;12.10;84.00;;;;;;4661285;30;20092;-77
2023/02/20 13:10:56;;;;;;;6.20;1.90;;;12.10;84.10;;;;;;4707393;30;20065;-79
2023/02/20 13:13:43;;;;;;;4.93;2.40;;;12.10;84.10;;;;;;4686674;30;20218;-79
2023/02/20 13:16:23;;;;;;;5.55;1.80;;;12.10;84.80;;;;;;4676419;30;20192;-80
2023/02/20 13:18:58;;;;;;;3.42;1.40;;;12.00;85.00;;;;;;4681765;30;20429;-79
2023/02/20 13:21:29;;;;;;;5.90;2.65;;;12.00;85.60;;;;;;4698021;30;20874;-79
2023/02/20 13:24:34;;;;;;;5.88;2.50;;;12.00;85.30;;;;;;4673573;30;20065;-79
2023/02/20 13:27:06;;;;;;;5.53;2.33;;;11.90;85.50;;;;;;4643867;30;20058;-78
2023/02/20 13:29:54;;;;;;;6.55;2.38;;;11.90;86.00;;;;;;4646943;30;20537;-78
2023/02/20 13:32:28;;;;;;;10.40;2.95;;;11.90;86.20;;;;;;4654793;30;20061;-79
2023/02/20 13:35:33;;;;;;;10.85;2.95;;;12.00;87.30;;;;;;4660505;30;20532;-79
2023/02/20 13:38:22;;;;;;;6.00;2.15;;;12.00;86.10;;;;;;4673481;30;20068;-79
2023/02/20 13:40:58;;;;;;;4.80;2.20;;;12.00;87.20;;;;;;4674403;30;20064;-79
2023/02/20 13:43:27;;;;;;;4.15;1.90;;;11.90;89.20;;;;;;4649175;30;22475;-79